createdAt,value
2023-02-07T00:04:58.002Z,100.00
2023-02-07T00:09:59.779Z,100.00
2023-02-07T00:15:01.314Z,100.00
2023-02-07T00:20:04.252Z,100.00
2023-02-07T00:25:06.330Z,100.00
2023-02-07T00:30:09.029Z,100.00
2023-02-07T00:35:10.699Z,100.00
2023-02-07T00:40:12.333Z,100.00
2023-02-07T00:45:14.042Z,100.00
2023-02-07T00:50:16.227Z,100.00
2023-02-07T00:55:17.999Z,100.00
2023-02-07T01:00:19.774Z,100.00
2023-02-07T01:05:21.458Z,100.00
2023-02-07T01:10:24.453Z,100.00
2023-02-07T01:15:26.233Z,100.00
2023-02-07T01:20:28.564Z,100.00
2023-02-07T01:25:30.291Z,100.00
2023-02-07T01:30:32.457Z,100.00
2023-02-07T01:35:34.554Z,100.00
2023-02-07T01:40:37.559Z,100.00
2023-02-07T01:45:39.945Z,100.00
2023-02-07T01:50:43.237Z,100.00
2023-02-07T01:55:45.748Z,100.00
2023-02-07T02:00:47.725Z,100.00
2023-02-07T02:05:53.796Z,100.00
2023-02-07T02:10:55.261Z,100.00
2023-02-07T02:16:16.996Z,100.00
2023-02-07T02:21:31.071Z,100.00
2023-02-07T02:26:41.965Z,100.00
2023-02-07T02:32:02.880Z,100.00
2023-02-07T02:37:10.809Z,100.00
2023-02-07T02:42:15.751Z,100.00
2023-02-07T02:47:18.451Z,100.00
2023-02-07T02:52:20.322Z,100.00
2023-02-07T02:57:28.445Z,100.00
2023-02-07T03:02:38.412Z,100.00
2023-02-07T03:07:40.085Z,100.00
2023-02-07T03:12:51.592Z,100.00
2023-02-07T03:18:09.541Z,100.00
2023-02-07T03:23:12.032Z,100.00
2023-02-07T03:28:15.494Z,100.00
2023-02-07T03:33:19.035Z,100.00
2023-02-07T03:38:21.137Z,100.00
2023-02-07T03:43:24.775Z,100.00
2023-02-07T03:48:26.322Z,100.00
2023-02-07T03:53:27.894Z,100.00
2023-02-07T03:58:29.469Z,100.00
2023-02-07T04:03:31.041Z,100.00
2023-02-07T04:08:33.119Z,100.00
2023-02-07T04:13:34.906Z,100.00
2023-02-07T04:18:36.531Z,100.00
2023-02-07T04:23:38.134Z,100.00
2023-02-07T04:28:39.702Z,100.00
2023-02-07T04:33:41.782Z,100.00
2023-02-07T04:38:43.452Z,100.00
2023-02-07T04:43:44.958Z,100.00
2023-02-07T04:48:48.126Z,100.00
2023-02-07T04:53:49.696Z,100.00
2023-02-07T04:58:51.163Z,100.00
2023-02-07T05:03:52.747Z,100.00
2023-02-07T05:08:54.306Z,100.00
2023-02-07T05:13:55.872Z,100.00
2023-02-07T05:18:57.652Z,100.00
2023-02-07T05:23:59.323Z,100.00
2023-02-07T05:29:00.899Z,100.00
2023-02-07T05:34:02.978Z,100.00
2023-02-07T05:39:04.744Z,100.00
2023-02-07T05:44:06.725Z,100.00
2023-02-07T05:49:08.496Z,100.00
2023-02-07T05:54:10.092Z,100.00
2023-02-07T05:59:11.630Z,100.00
2023-02-07T06:04:13.198Z,100.00
2023-02-07T06:09:15.180Z,100.00
2023-02-07T06:14:17.160Z,100.00
2023-02-07T06:19:18.725Z,100.00
2023-02-07T06:24:21.935Z,100.00
2023-02-07T06:29:23.608Z,100.00
2023-02-07T06:34:25.793Z,100.00
2023-02-07T06:39:27.361Z,100.00
2023-02-07T06:44:28.993Z,100.00
2023-02-07T06:49:31.115Z,100.00
2023-02-07T06:54:33.103Z,100.00
2023-02-07T06:59:35.483Z,100.00
2023-02-07T07:04:37.260Z,100.00
2023-02-07T07:09:40.162Z,100.00
2023-02-07T07:14:41.732Z,100.00
2023-02-07T07:19:43.610Z,100.00
2023-02-07T07:24:45.489Z,100.00
2023-02-07T07:29:47.077Z,100.00
2023-02-07T07:34:49.961Z,100.00
2023-02-07T07:39:51.527Z,100.00
2023-02-07T07:44:53.298Z,100.00
2023-02-07T07:49:55.376Z,99.52
2023-02-07T07:54:56.861Z,98.70
2023-02-07T07:59:58.719Z,97.44
2023-02-07T08:05:00.393Z,96.14
2023-02-07T08:10:07.090Z,94.85
2023-02-07T08:15:10.188Z,93.24
2023-02-07T08:20:12.734Z,90.56
2023-02-07T08:25:15.684Z,88.31
2023-02-07T08:30:18.688Z,85.73
2023-02-07T08:35:21.071Z,84.54
2023-02-07T08:40:25.393Z,83.29
2023-02-07T08:45:28.619Z,79.86
2023-02-07T08:50:31.006Z,76.12
2023-02-07T08:55:33.085Z,74.05
2023-02-07T09:00:35.781Z,73.94
2023-02-07T09:05:39.306Z,75.06
2023-02-07T09:10:41.810Z,75.13
2023-02-07T09:15:44.992Z,73.44
2023-02-07T09:20:47.587Z,72.80
2023-02-07T09:25:50.594Z,73.38
2023-02-07T09:30:52.974Z,73.44
2023-02-07T09:35:55.472Z,74.28
2023-02-07T09:40:59.400Z,74.78
2023-02-07T09:46:04.328Z,74.97
2023-02-07T09:51:08.987Z,74.49
2023-02-07T09:56:10.863Z,74.05
2023-02-07T10:01:17.507Z,73.48
2023-02-07T10:06:26.890Z,73.32
2023-02-07T10:11:28.955Z,73.74
2023-02-07T10:16:33.757Z,74.18
2023-02-07T10:21:50.650Z,74.21
2023-02-07T10:27:12.310Z,74.74
2023-02-07T10:32:17.748Z,75.41
2023-02-07T10:37:20.963Z,75.57
2023-02-07T10:42:23.552Z,75.31
2023-02-07T10:47:27.390Z,75.14
2023-02-07T10:52:35.090Z,75.41
2023-02-07T10:57:37.610Z,75.22
2023-02-07T11:02:48.841Z,75.21
2023-02-07T11:07:57.921Z,75.28
2023-02-07T11:13:01.141Z,75.26
2023-02-07T11:18:04.541Z,75.31
2023-02-07T11:23:15.960Z,75.78
2023-02-07T11:28:26.522Z,75.94
2023-02-07T11:33:29.125Z,75.49
2023-02-07T11:38:30.791Z,75.87
2023-02-07T11:43:33.892Z,75.80
2023-02-07T11:48:37.436Z,76.01
2023-02-07T11:53:41.865Z,76.29
2023-02-07T11:58:49.158Z,76.57
2023-02-07T12:03:58.924Z,77.20
2023-02-07T12:09:01.812Z,77.32
2023-02-07T12:14:11.896Z,77.27
2023-02-07T12:19:28.609Z,77.07
2023-02-07T12:24:43.190Z,76.69
2023-02-07T12:30:05.031Z,76.49
2023-02-07T12:35:18.196Z,76.53
2023-02-07T12:40:46.270Z,76.44
2023-02-07T12:46:00.592Z,76.75
2023-02-07T12:51:15.410Z,76.81
2023-02-07T12:56:26.200Z,76.84
2023-02-07T13:01:51.197Z,76.62
2023-02-07T13:06:59.021Z,76.64
2023-02-07T13:12:20.965Z,76.33
2023-02-07T13:17:35.943Z,76.32
2023-02-07T13:22:50.831Z,76.30
2023-02-07T13:27:54.263Z,76.75
2023-02-07T13:32:59.290Z,77.30
2023-02-07T13:38:12.123Z,77.12
2023-02-07T13:43:18.515Z,77.54
2023-02-07T13:48:36.052Z,77.91
2023-02-07T13:53:46.121Z,78.28
2023-02-07T13:59:06.532Z,78.23
2023-02-07T14:04:10.979Z,78.76
2023-02-07T14:09:23.701Z,79.28
2023-02-07T14:14:25.282Z,79.89
2023-02-07T14:19:39.437Z,80.35
2023-02-07T14:24:49.619Z,80.75
2023-02-07T14:29:53.421Z,81.17
2023-02-07T14:50:30.958Z,81.70
2023-02-07T14:55:46.259Z,82.18
2023-02-07T15:00:54.962Z,82.62
2023-02-07T15:06:03.499Z,83.42
2023-02-07T15:11:12.025Z,84.36
2023-02-07T15:16:19.991Z,85.15
2023-02-07T15:21:40.048Z,85.71
2023-02-07T15:26:51.203Z,86.13
2023-02-07T15:31:55.498Z,86.59
2023-02-07T15:37:14.605Z,87.08
2023-02-07T15:42:19.893Z,87.55
2023-02-07T15:47:29.370Z,87.74
2023-02-07T15:52:39.001Z,88.21
2023-02-07T15:57:44.459Z,88.57
2023-02-07T16:02:57.214Z,88.78
2023-02-07T16:08:02.067Z,88.98
2023-02-07T16:13:19.615Z,89.10
2023-02-07T16:18:47.088Z,89.47
2023-02-07T16:23:54.626Z,89.96
2023-02-07T16:28:58.681Z,90.47
2023-02-07T16:34:02.924Z,90.87
2023-02-07T16:39:09.971Z,91.27
2023-02-07T16:44:18.583Z,91.99
2023-02-07T16:49:25.889Z,92.57
2023-02-07T16:54:29.920Z,93.07
2023-02-07T16:59:33.330Z,93.49
2023-02-07T17:04:37.357Z,93.98
2023-02-07T17:09:40.772Z,94.38
2023-02-07T17:14:44.794Z,94.57
2023-02-07T17:19:50.465Z,94.87
2023-02-07T17:24:54.179Z,94.93
2023-02-07T17:29:57.697Z,94.78
2023-02-07T17:35:01.525Z,94.84
2023-02-07T17:40:19.877Z,94.91
2023-02-07T17:45:28.064Z,95.25
2023-02-07T17:50:36.018Z,95.71
2023-02-07T17:55:39.738Z,95.96
2023-02-07T18:00:43.572Z,96.47
2023-02-07T18:05:48.818Z,97.02
2023-02-07T18:10:52.028Z,96.95
2023-02-07T18:15:55.352Z,97.13
2023-02-07T18:20:58.960Z,97.37
2023-02-07T18:26:02.772Z,97.58
2023-02-07T18:31:14.645Z,97.87
2023-02-07T18:36:21.692Z,98.41
2023-02-07T18:41:26.849Z,98.83
2023-02-07T18:46:32.508Z,99.01
2023-02-07T18:51:36.432Z,99.03
2023-02-07T18:56:42.203Z,99.25
2023-02-07T19:01:48.506Z,99.43
2023-02-07T19:06:52.690Z,99.50
2023-02-07T19:12:00.033Z,99.65
2023-02-07T19:17:03.538Z,99.73
2023-02-07T19:22:06.852Z,99.74
2023-02-07T19:27:10.369Z,99.87
2023-02-07T19:32:14.571Z,99.76
2023-02-07T19:37:19.341Z,99.78
2023-02-07T19:42:25.944Z,99.81
2023-02-07T19:47:29.544Z,99.93
2023-02-07T19:52:33.675Z,100.00
2023-02-07T19:57:37.193Z,100.00
2023-02-07T20:02:40.600Z,100.00
2023-02-07T20:07:45.241Z,100.00
2023-02-07T20:12:49.533Z,100.00
2023-02-07T20:17:54.434Z,100.00
2023-02-07T20:22:57.741Z,100.00
2023-02-07T20:28:01.381Z,100.00
2023-02-07T20:33:04.673Z,100.00
2023-02-07T20:38:08.184Z,99.87
2023-02-07T20:43:11.497Z,99.71
2023-02-07T20:48:16.770Z,99.69
2023-02-07T20:53:19.965Z,99.53
2023-02-07T20:58:23.133Z,99.73
2023-02-07T21:03:26.700Z,99.99
2023-02-07T21:08:30.829Z,100.00
2023-02-07T21:13:35.567Z,100.00
2023-02-07T21:18:38.667Z,100.00
2023-02-07T21:23:42.897Z,100.00
2023-02-07T21:28:47.440Z,100.00
2023-02-07T21:33:51.562Z,100.00
2023-02-07T21:38:56.631Z,100.00
2023-02-07T21:44:00.657Z,100.00
2023-02-07T21:49:10.915Z,100.00
2023-02-07T21:54:14.025Z,100.00
2023-02-07T21:59:19.690Z,100.00
2023-02-07T22:04:22.793Z,100.00
2023-02-07T22:09:26.063Z,100.00
2023-02-07T22:14:30.345Z,100.00
2023-02-07T22:19:33.958Z,100.00
2023-02-07T22:24:37.061Z,100.00
2023-02-07T22:29:40.469Z,100.00
2023-02-07T22:34:46.245Z,100.00
2023-02-07T22:39:50.263Z,100.00
2023-02-07T22:44:53.371Z,100.00
2023-02-07T22:49:56.476Z,100.00
2023-02-07T22:54:59.584Z,100.00
2023-02-07T23:00:07.813Z,100.00
2023-02-07T23:05:11.481Z,100.00
2023-02-07T23:10:15.649Z,100.00
2023-02-07T23:15:18.864Z,100.00
2023-02-07T23:20:21.970Z,99.87
2023-02-07T23:25:25.700Z,99.70
2023-02-07T23:30:28.934Z,99.50
2023-02-07T23:35:34.563Z,99.35
2023-02-07T23:40:38.122Z,99.22
2023-02-07T23:45:41.395Z,99.21
2023-02-07T23:50:44.600Z,99.18
2023-02-07T23:55:49.664Z,99.21
